Time;durP1;ratioP1;P1;durP2;ratioP2;P2;SDS_P1;SDS_P2;PMS_P1;PMS_P2;Temp;Humidity;BMP_temperature;BMP_pressure;BME280_temperature;BME280_humidity;BME280_pressure;Samples;Min_cycle;Max_cycle;Signal;HPM_P1;HPM_P2
2021/03/04 00:01:49;;;;;;;28.35;20.92;;;10.90;99.90;;;;;;5107008;27;20200;-76
2021/03/04 00:04:15;;;;;;;30.67;21.40;;;10.90;99.90;;;;;;5097192;28;20841;-76
2021/03/04 00:06:41;;;;;;;28.58;21.35;;;10.90;99.90;;;;;;5100582;28;20189;-78
2021/03/04 00:09:08;;;;;;;30.50;22.95;;;10.90;99.90;;;;;;5102123;28;20193;-76
2021/03/04 00:11:34;;;;;;;28.27;21.90;;;10.90;99.90;;;;;;5104403;27;20193;-77
2021/03/04 00:14:00;;;;;;;28.23;20.92;;;10.80;99.90;;;;;;5110860;27;20530;-77
2021/03/04 00:16:27;;;;;;;31.02;24.40;;;10.80;99.90;;;;;;5093798;28;20655;-77
2021/03/04 00:18:53;;;;;;;31.55;22.40;;;10.80;99.90;;;;;;5096004;27;20262;-77
2021/03/04 00:21:19;;;;;;;24.42;19.75;;;10.80;99.90;;;;;;5092696;28;20212;-77
2021/03/04 00:23:45;;;;;;;32.20;23.30;;;10.80;99.90;;;;;;5104023;28;20232;-76
2021/03/04 00:26:11;;;;;;;28.52;23.15;;;10.80;99.90;;;;;;5097083;28;20246;-76
2021/03/04 00:28:37;;;;;;;30.58;23.10;;;10.70;99.90;;;;;;5112660;28;20196;-77
2021/03/04 00:31:04;;;;;;;31.58;23.35;;;10.70;99.90;;;;;;5110131;28;20242;-76
2021/03/04 00:33:30;;;;;;;35.22;21.67;;;10.70;99.90;;;;;;5100366;28;20213;-76
2021/03/04 00:35:57;;;;;;;30.75;22.85;;;10.70;99.90;;;;;;5102519;28;20590;-76
2021/03/04 00:38:23;;;;;;;30.55;24.35;;;10.70;99.90;;;;;;5103833;28;20197;-76
2021/03/04 00:40:49;;;;;;;29.45;23.65;;;10.70;99.90;;;;;;5092512;28;20228;-76
2021/03/04 00:43:15;;;;;;;30.00;22.30;;;10.70;99.90;;;;;;5096938;28;20200;-76
2021/03/04 00:45:41;;;;;;;32.15;23.75;;;10.70;99.90;;;;;;5107536;27;20541;-75
2021/03/04 00:48:09;;;;;;;31.70;24.60;;;10.70;99.90;;;;;;5108986;28;20651;-76
2021/03/04 00:50:37;;;;;;;32.35;23.52;;;10.60;99.90;;;;;;5107362;28;20198;-76
2021/03/04 00:53:03;;;;;;;29.92;23.63;;;10.60;99.90;;;;;;5095356;27;20189;-76
2021/03/04 00:55:30;;;;;;;28.58;23.20;;;10.60;99.90;;;;;;5094669;27;20204;-76
2021/03/04 00:57:56;;;;;;;33.95;23.05;;;10.60;99.90;;;;;;5099462;28;20188;-76
2021/03/04 01:00:22;;;;;;;29.75;23.23;;;10.60;99.90;;;;;;5109566;28;20201;-76
2021/03/04 01:02:49;;;;;;;34.80;25.77;;;10.60;99.90;;;;;;5102700;28;20200;-76
2021/03/04 01:05:15;;;;;;;33.22;24.63;;;10.50;99.90;;;;;;5096848;27;20235;-76
2021/03/04 01:07:42;;;;;;;34.17;22.85;;;10.50;99.90;;;;;;5091127;27;20219;-77
2021/03/04 01:10:10;;;;;;;35.53;25.50;;;10.50;99.90;;;;;;5112333;28;20208;-77
2021/03/04 01:12:37;;;;;;;30.75;25.15;;;10.50;99.90;;;;;;5111185;28;20193;-77
2021/03/04 01:15:05;;;;;;;36.28;25.52;;;10.50;99.90;;;;;;5094342;27;20205;-76
2021/03/04 01:17:31;;;;;;;37.75;24.95;;;10.50;99.90;;;;;;5095060;28;20197;-77
2021/03/04 01:19:58;;;;;;;34.08;26.27;;;10.50;99.90;;;;;;5091384;28;20701;-76
2021/03/04 01:22:24;;;;;;;32.22;25.55;;;10.50;99.90;;;;;;5096310;28;20270;-76
2021/03/04 01:24:51;;;;;;;34.40;24.75;;;10.40;99.90;;;;;;5103113;28;20234;-76
2021/03/04 01:27:17;;;;;;;36.70;25.50;;;10.40;99.90;;;;;;5094303;28;20205;-76
2021/03/04 01:29:43;;;;;;;34.50;25.75;;;10.50;99.90;;;;;;5094917;27;20201;-76
2021/03/04 01:32:09;;;;;;;34.42;25.65;;;10.40;99.90;;;;;;5091204;28;20202;-76
2021/03/04 01:34:35;;;;;;;34.15;25.02;;;10.40;99.90;;;;;;5101066;27;20674;-76
2021/03/04 01:37:01;;;;;;;35.03;25.35;;;10.40;99.90;;;;;;5108478;28;20633;-76
2021/03/04 01:39:28;;;;;;;34.90;26.02;;;10.40;99.90;;;;;;5099940;28;20216;-76
2021/03/04 01:41:56;;;;;;;33.97;25.33;;;10.40;99.90;;;;;;5100468;28;20197;-76
2021/03/04 01:44:22;;;;;;;38.78;26.25;;;10.40;99.90;;;;;;5110152;28;20233;-76
2021/03/04 01:46:48;;;;;;;36.58;25.65;;;10.40;99.90;;;;;;5092518;28;20193;-77
2021/03/04 01:49:15;;;;;;;35.33;27.98;;;10.30;99.90;;;;;;5091120;28;20202;-76
2021/03/04 01:51:41;;;;;;;38.83;26.58;;;10.30;99.90;;;;;;5104271;28;20201;-76
2021/03/04 01:54:08;;;;;;;34.47;26.10;;;10.30;99.90;;;;;;5096912;28;20201;-76
2021/03/04 01:56:34;;;;;;;37.00;26.63;;;10.30;99.90;;;;;;5106378;28;20204;-76
2021/03/04 01:59:02;;;;;;;30.08;24.20;;;10.30;99.90;;;;;;5107602;28;20205;-76
2021/03/04 02:02:12;;;;;;;31.60;24.38;;;10.30;99.90;;;;;;5099247;28;20644;-76
2021/03/04 02:04:38;;;;;;;33.13;25.92;;;10.30;99.90;;;;;;5105137;27;20197;-77
2021/03/04 02:07:11;;;;;;;37.40;26.20;;;10.30;99.90;;;;;;5091627;28;20209;-77
2021/03/04 02:09:38;;;;;;;37.78;25.77;;;10.30;99.90;;;;;;5092507;28;20202;-77
2021/03/04 02:12:13;;;;;;;38.78;27.80;;;10.30;99.90;;;;;;5103493;28;20270;-76
2021/03/04 02:14:48;;;;;;;33.83;26.73;;;10.30;99.90;;;;;;5096961;28;20203;-76
2021/03/04 02:17:17;;;;;;;33.67;25.80;;;10.30;99.90;;;;;;5103521;28;20192;-77
2021/03/04 02:19:50;;;;;;;39.80;27.10;;;10.30;99.90;;;;;;5091772;28;20251;-76
2021/03/04 02:22:39;;;;;;;35.15;25.17;;;10.20;99.90;;;;;;5095312;27;20229;-76
2021/03/04 02:25:13;;;;;;;37.88;28.27;;;10.20;99.90;;;;;;5094779;27;20197;-76
2021/03/04 02:27:42;;;;;;;32.65;25.13;;;10.20;99.90;;;;;;5094435;27;20258;-76
2021/03/04 02:30:10;;;;;;;35.78;25.23;;;10.20;99.90;;;;;;5104558;28;20268;-76
2021/03/04 02:32:42;;;;;;;34.30;26.35;;;10.20;99.90;;;;;;5112411;28;20670;-76
2021/03/04 02:35:13;;;;;;;33.38;27.05;;;10.20;99.90;;;;;;5107947;28;20200;-76
2021/03/04 02:37:42;;;;;;;40.17;25.42;;;10.20;99.90;;;;;;5112449;28;20184;-76
2021/03/04 02:40:10;;;;;;;31.25;24.65;;;10.20;99.90;;;;;;5094289;28;20553;-76
2021/03/04 02:42:39;;;;;;;36.83;25.88;;;10.20;99.90;;;;;;5095128;28;20596;-76
2021/03/04 02:45:09;;;;;;;33.58;25.20;;;10.20;99.90;;;;;;5113979;28;20741;-77
2021/03/04 02:47:38;;;;;;;34.90;25.98;;;10.10;99.90;;;;;;5112619;28;20205;-77
2021/03/04 02:50:06;;;;;;;36.55;25.48;;;10.10;99.90;;;;;;5108500;28;20209;-76
2021/03/04 02:52:33;;;;;;;30.77;24.42;;;10.10;99.90;;;;;;5096506;27;20194;-76
2021/03/04 02:55:00;;;;;;;35.30;24.88;;;10.10;99.90;;;;;;5095623;27;20201;-76
2021/03/04 02:57:28;;;;;;;32.67;26.33;;;10.10;99.90;;;;;;5094468;28;20194;-75
2021/03/04 02:59:54;;;;;;;31.42;24.85;;;10.10;99.90;;;;;;5101880;28;20232;-75
2021/03/04 03:02:22;;;;;;;34.78;24.23;;;10.10;99.90;;;;;;5113610;27;20518;-75
2021/03/04 03:04:48;;;;;;;29.05;22.77;;;10.10;99.90;;;;;;5105948;28;20193;-75
2021/03/04 03:07:15;;;;;;;33.20;22.88;;;10.10;99.90;;;;;;5113840;28;20201;-74
2021/03/04 03:09:44;;;;;;;33.83;23.38;;;10.10;99.90;;;;;;5107911;28;20263;-75
2021/03/04 03:12:12;;;;;;;32.10;23.50;;;10.10;99.90;;;;;;5113084;28;20231;-75
2021/03/04 03:14:38;;;;;;;34.45;24.88;;;10.10;99.90;;;;;;5097933;28;21073;-75
2021/03/04 03:17:06;;;;;;;31.05;23.15;;;10.10;99.90;;;;;;5093805;28;20776;-75
2021/03/04 03:19:34;;;;;;;34.75;24.23;;;10.10;99.90;;;;;;5111978;28;20227;-75
2021/03/04 03:22:00;;;;;;;34.55;24.42;;;10.10;99.90;;;;;;5102506;27;20283;-74
2021/03/04 03:24:26;;;;;;;32.83;23.67;;;10.10;99.90;;;;;;5094274;28;20254;-76
2021/03/04 03:26:52;;;;;;;31.90;23.58;;;10.10;99.90;;;;;;5106608;28;20642;-75
2021/03/04 03:29:19;;;;;;;31.90;23.10;;;10.10;99.90;;;;;;5099607;28;20197;-76
2021/03/04 03:31:48;;;;;;;31.20;22.15;;;10.10;99.90;;;;;;5102528;27;20189;-75
2021/03/04 03:34:15;;;;;;;35.20;22.80;;;10.00;99.90;;;;;;5103108;27;20204;-75
2021/03/04 03:36:42;;;;;;;32.60;22.50;;;10.10;99.90;;;;;;5105796;28;20207;-75
2021/03/04 03:39:09;;;;;;;35.58;22.50;;;10.10;99.90;;;;;;5098811;27;20194;-76
2021/03/04 03:41:39;;;;;;;30.10;21.05;;;10.00;99.90;;;;;;5093244;27;20221;-77
2021/03/04 03:44:08;;;;;;;29.45;22.13;;;10.00;99.90;;;;;;5093709;28;20263;-75
2021/03/04 03:46:36;;;;;;;29.95;23.75;;;10.00;99.90;;;;;;5093658;28;20201;-78
2021/03/04 03:49:04;;;;;;;34.13;21.95;;;10.00;99.90;;;;;;5093630;28;20197;-79
2021/03/04 03:51:31;;;;;;;28.10;22.27;;;10.00;99.90;;;;;;5107571;27;20217;-80
2021/03/04 03:53:59;;;;;;;32.45;21.35;;;10.00;99.90;;;;;;5092779;28;20208;-79
2021/03/04 03:56:27;;;;;;;28.45;22.63;;;10.00;99.90;;;;;;5097155;28;20193;-79
2021/03/04 03:58:54;;;;;;;30.98;22.23;;;10.00;99.90;;;;;;5093018;28;20590;-78
2021/03/04 04:01:20;;;;;;;30.65;22.27;;;10.00;99.90;;;;;;5094227;28;20217;-78
2021/03/04 04:03:47;;;;;;;26.65;20.70;;;10.00;99.90;;;;;;5105534;27;20202;-78
2021/03/04 04:06:13;;;;;;;28.00;19.52;;;10.00;99.90;;;;;;5092471;28;20789;-79
2021/03/04 04:08:39;;;;;;;33.05;24.08;;;10.00;99.90;;;;;;5102346;28;20205;-78
2021/03/04 04:11:06;;;;;;;26.45;21.05;;;10.00;99.90;;;;;;5097075;27;20200;-79
2021/03/04 04:13:33;;;;;;;25.90;20.85;;;9.90;99.90;;;;;;5094676;27;20198;-78
2021/03/04 04:15:59;;;;;;;29.33;21.05;;;9.90;99.90;;;;;;5098202;28;20196;-78
2021/03/04 04:18:25;;;;;;;30.70;22.00;;;9.90;99.90;;;;;;5106699;28;20197;-77
2021/03/04 04:20:51;;;;;;;27.52;20.95;;;9.90;99.90;;;;;;5109501;28;20235;-78
2021/03/04 04:23:19;;;;;;;29.45;21.73;;;9.90;99.90;;;;;;5098059;28;20237;-77
2021/03/04 04:25:51;;;;;;;37.45;22.90;;;9.90;99.90;;;;;;5104060;27;20794;-78
2021/03/04 04:28:19;;;;;;;34.22;22.05;;;9.90;99.90;;;;;;5098513;28;20193;-78
2021/03/04 04:30:45;;;;;;;31.02;22.55;;;9.90;99.90;;;;;;5096091;28;20194;-77
2021/03/04 04:33:12;;;;;;;30.88;22.10;;;9.90;99.90;;;;;;5105557;28;20203;-77
2021/03/04 04:35:38;;;;;;;33.00;23.13;;;9.90;99.90;;;;;;5103676;28;20227;-77
2021/03/04 04:38:04;;;;;;;29.98;22.50;;;9.80;99.90;;;;;;5110763;27;20212;-77
2021/03/04 04:40:31;;;;;;;30.98;22.00;;;9.80;99.90;;;;;;5101448;27;20224;-76
2021/03/04 04:42:57;;;;;;;30.05;20.90;;;9.80;99.90;;;;;;5111262;27;20193;-76
2021/03/04 04:45:24;;;;;;;33.30;23.95;;;9.80;99.90;;;;;;5093205;28;20280;-78
2021/03/04 04:47:50;;;;;;;35.67;24.23;;;9.80;99.90;;;;;;5104570;28;20199;-78
2021/03/04 04:50:16;;;;;;;31.80;22.50;;;9.80;99.90;;;;;;5103856;28;20200;-78
2021/03/04 04:52:43;;;;;;;31.17;23.38;;;9.80;99.90;;;;;;5097234;28;20212;-78
2021/03/04 04:55:10;;;;;;;39.30;25.10;;;9.80;99.90;;;;;;5094186;28;20542;-78
2021/03/04 04:57:36;;;;;;;34.53;23.17;;;9.80;99.90;;;;;;5103599;27;20197;-78
2021/03/04 05:00:04;;;;;;;33.00;22.52;;;9.80;99.90;;;;;;5103540;28;20342;-78
2021/03/04 05:02:31;;;;;;;32.42;23.48;;;9.80;99.90;;;;;;5091762;27;20197;-78
2021/03/04 05:04:57;;;;;;;33.58;23.27;;;9.80;99.90;;;;;;5095863;28;20216;-77
2021/03/04 05:07:23;;;;;;;32.58;22.08;;;9.80;99.90;;;;;;5091633;28;20193;-78
2021/03/04 05:09:49;;;;;;;30.17;22.45;;;9.70;99.90;;;;;;5109032;28;20196;-77
2021/03/04 05:12:16;;;;;;;29.85;22.77;;;9.70;99.90;;;;;;5092486;28;20197;-77
2021/03/04 05:14:42;;;;;;;36.45;23.38;;;9.70;99.90;;;;;;5100447;28;20201;-77
2021/03/04 05:17:08;;;;;;;36.75;25.33;;;9.70;99.90;;;;;;5091723;27;20193;-77
2021/03/04 05:19:35;;;;;;;35.28;23.23;;;9.70;99.90;;;;;;5101529;28;20201;-76
2021/03/04 05:22:02;;;;;;;30.83;22.60;;;9.70;99.90;;;;;;5092829;28;20217;-79
2021/03/04 05:24:28;;;;;;;35.65;22.75;;;9.70;99.90;;;;;;5108612;28;20542;-79
2021/03/04 05:26:54;;;;;;;34.10;22.20;;;9.70;99.90;;;;;;5091598;28;20202;-77
2021/03/04 05:29:20;;;;;;;33.97;23.92;;;9.70;99.90;;;;;;5098341;28;20201;-77
2021/03/04 05:31:46;;;;;;;30.38;21.38;;;9.70;99.90;;;;;;5098039;28;20733;-77
2021/03/04 05:34:13;;;;;;;34.55;22.85;;;9.70;99.90;;;;;;5097038;28;20224;-77
2021/03/04 05:36:40;;;;;;;28.98;20.58;;;9.70;99.90;;;;;;5096798;28;20209;-76
2021/03/04 05:39:06;;;;;;;34.20;24.58;;;9.60;99.90;;;;;;5102100;28;20238;-76
2021/03/04 05:41:33;;;;;;;32.67;21.85;;;9.60;99.90;;;;;;5106394;28;20213;-76
2021/03/04 05:44:00;;;;;;;34.00;22.98;;;9.60;99.90;;;;;;5095465;27;20201;-76
2021/03/04 05:46:26;;;;;;;34.55;23.70;;;9.60;99.90;;;;;;5092781;28;20197;-77
2021/03/04 05:48:53;;;;;;;31.80;21.27;;;9.60;99.90;;;;;;5106464;28;20267;-75
2021/03/04 05:51:24;;;;;;;30.83;21.52;;;9.60;99.90;;;;;;5102312;27;20325;-76
2021/03/04 05:53:55;;;;;;;30.75;20.90;;;9.60;99.90;;;;;;5090841;28;20579;-76
2021/03/04 05:56:22;;;;;;;32.72;22.73;;;9.60;99.90;;;;;;5091219;28;20219;-76
2021/03/04 05:58:49;;;;;;;33.60;21.77;;;9.60;99.90;;;;;;5098501;28;20208;-76
2021/03/04 06:01:15;;;;;;;30.70;20.20;;;9.60;99.90;;;;;;5106028;28;20216;-76
2021/03/04 06:03:41;;;;;;;30.33;20.75;;;9.60;99.90;;;;;;5104294;28;20196;-75
2021/03/04 06:06:08;;;;;;;35.55;23.13;;;9.50;99.90;;;;;;5108818;28;20635;-76
2021/03/04 06:08:34;;;;;;;36.45;22.92;;;9.60;99.90;;;;;;5095801;28;20221;-76
2021/03/04 06:11:02;;;;;;;32.20;21.27;;;9.50;99.90;;;;;;5105214;28;20201;-76
2021/03/04 06:13:28;;;;;;;31.75;21.98;;;9.50;99.90;;;;;;5102874;28;20249;-76
2021/03/04 06:15:55;;;;;;;32.75;22.55;;;9.50;99.90;;;;;;5090701;28;20282;-76
2021/03/04 06:18:21;;;;;;;30.90;21.23;;;9.50;99.90;;;;;;5109872;28;20192;-76
2021/03/04 06:20:48;;;;;;;30.92;21.70;;;9.50;99.90;;;;;;5109606;28;20247;-76
2021/03/04 06:23:14;;;;;;;37.63;23.75;;;9.60;99.90;;;;;;5108263;28;20274;-75
2021/03/04 06:25:44;;;;;;;37.88;23.15;;;9.50;99.90;;;;;;5095475;28;20671;-76
2021/03/04 06:28:11;;;;;;;37.30;22.60;;;9.50;99.90;;;;;;5107045;28;20193;-76
2021/03/04 06:30:40;;;;;;;36.17;22.75;;;9.50;99.90;;;;;;5110019;28;20188;-76
2021/03/04 06:33:08;;;;;;;34.35;22.67;;;9.50;99.90;;;;;;5094225;28;20193;-76
2021/03/04 06:35:35;;;;;;;37.72;26.05;;;9.50;99.90;;;;;;5094291;28;20197;-75
2021/03/04 06:38:13;;;;;;;34.63;22.60;;;9.50;99.90;;;;;;5092440;28;20197;-75
2021/03/04 06:40:39;;;;;;;39.33;24.35;;;9.40;99.90;;;;;;5110940;28;20204;-76
2021/03/04 06:43:05;;;;;;;38.35;23.35;;;9.50;99.90;;;;;;5110000;28;20204;-75
2021/03/04 06:45:35;;;;;;;40.78;23.30;;;9.50;99.90;;;;;;5094441;28;20262;-75
2021/03/04 06:48:09;;;;;;;36.38;24.08;;;9.40;99.90;;;;;;5109059;28;20193;-76
2021/03/04 06:50:36;;;;;;;40.67;23.92;;;9.50;99.90;;;;;;5100200;28;20191;-75
2021/03/04 06:53:16;;;;;;;35.45;24.77;;;9.40;99.90;;;;;;5093434;28;20198;-75
2021/03/04 06:55:54;;;;;;;40.45;23.73;;;9.40;99.90;;;;;;5097419;28;20200;-77
2021/03/04 06:58:27;;;;;;;43.45;23.77;;;9.40;99.90;;;;;;5096343;28;20650;-77
2021/03/04 07:01:08;;;;;;;39.78;24.70;;;9.40;99.90;;;;;;5103937;28;20205;-77
2021/03/04 07:03:39;;;;;;;34.60;21.73;;;9.40;99.90;;;;;;5100296;28;20215;-76
2021/03/04 07:06:07;;;;;;;33.95;23.00;;;9.40;99.90;;;;;;5093635;28;20193;-77
2021/03/04 07:08:38;;;;;;;34.92;23.42;;;9.40;99.90;;;;;;5099326;28;20638;-76
2021/03/04 07:11:06;;;;;;;33.78;20.70;;;9.40;99.90;;;;;;5110707;27;20207;-78
2021/03/04 07:13:34;;;;;;;37.58;21.00;;;9.40;99.90;;;;;;5099131;27;20208;-77
2021/03/04 07:16:05;;;;;;;35.05;21.08;;;9.40;99.90;;;;;;5095864;28;20243;-75
2021/03/04 07:18:37;;;;;;;40.05;22.35;;;9.40;99.90;;;;;;5094620;27;20618;-75
2021/03/04 07:21:05;;;;;;;36.97;21.50;;;9.40;99.90;;;;;;5092943;28;20510;-76
2021/03/04 07:23:33;;;;;;;32.60;19.33;;;9.40;99.90;;;;;;5098654;28;20608;-76
2021/03/04 07:26:00;;;;;;;32.13;20.95;;;9.40;99.90;;;;;;5097232;28;20197;-76
2021/03/04 07:28:28;;;;;;;36.67;21.75;;;9.40;99.90;;;;;;5098141;27;20540;-76
2021/03/04 07:30:55;;;;;;;33.83;23.13;;;9.40;99.90;;;;;;5112940;28;20200;-76
2021/03/04 07:33:22;;;;;;;38.30;21.83;;;9.40;99.90;;;;;;5106306;28;20673;-76
2021/03/04 07:35:49;;;;;;;27.45;19.50;;;9.30;99.90;;;;;;5105469;28;20193;-77
2021/03/04 07:38:24;;;;;;;30.70;19.02;;;9.30;99.90;;;;;;5097943;28;20200;-76
2021/03/04 07:41:03;;;;;;;32.33;20.20;;;9.30;99.90;;;;;;5114178;28;20216;-76
2021/03/04 07:43:30;;;;;;;34.20;20.98;;;9.30;99.90;;;;;;5110876;28;20188;-76
2021/03/04 07:45:56;;;;;;;36.00;20.45;;;9.30;99.90;;;;;;5093262;28;20212;-76
2021/03/04 07:48:23;;;;;;;32.90;21.15;;;9.30;99.90;;;;;;5112610;28;20192;-76
2021/03/04 07:50:56;;;;;;;31.13;20.23;;;9.30;99.90;;;;;;5107987;28;20193;-76
2021/03/04 07:53:23;;;;;;;38.53;20.45;;;9.30;99.90;;;;;;5104134;27;20220;-76
2021/03/04 07:55:50;;;;;;;33.28;21.52;;;9.30;99.90;;;;;;5103414;27;20207;-76
2021/03/04 07:58:16;;;;;;;33.40;18.98;;;9.30;99.90;;;;;;5107369;27;20217;-76
2021/03/04 08:00:43;;;;;;;29.75;19.13;;;9.30;99.90;;;;;;5100058;28;20306;-76
2021/03/04 08:03:09;;;;;;;33.78;20.83;;;9.30;99.90;;;;;;5102564;28;20194;-76
2021/03/04 08:05:37;;;;;;;30.42;19.70;;;9.30;99.90;;;;;;5110388;28;20197;-76
2021/03/04 08:08:12;;;;;;;29.92;19.40;;;9.20;99.90;;;;;;5113934;28;20204;-76
2021/03/04 08:10:47;;;;;;;32.33;19.15;;;9.20;99.90;;;;;;5107349;28;20193;-76
2021/03/04 08:13:13;;;;;;;29.05;17.48;;;9.20;99.90;;;;;;5093770;28;20193;-76
2021/03/04 08:15:41;;;;;;;30.50;18.33;;;9.30;99.90;;;;;;5093183;28;20213;-77
2021/03/04 08:18:19;;;;;;;36.17;19.70;;;9.30;99.90;;;;;;5104850;28;20207;-76
2021/03/04 08:20:47;;;;;;;36.00;20.13;;;9.20;99.90;;;;;;5104550;28;20221;-76
2021/03/04 08:23:14;;;;;;;30.67;19.02;;;9.30;99.90;;;;;;5111957;28;20587;-77
2021/03/04 08:25:41;;;;;;;35.60;20.52;;;9.30;99.90;;;;;;5112625;28;20201;-80
2021/03/04 08:28:08;;;;;;;32.03;19.85;;;9.20;99.90;;;;;;5111584;28;20200;-83
2021/03/04 08:30:38;;;;;;;33.80;21.05;;;9.30;99.90;;;;;;5105523;28;20200;-77
2021/03/04 08:33:06;;;;;;;38.53;22.48;;;9.20;99.90;;;;;;5097602;28;20202;-81
2021/03/04 08:35:36;;;;;;;32.53;21.08;;;9.20;99.90;;;;;;5111525;28;20204;-84
2021/03/04 08:38:05;;;;;;;31.15;19.85;;;9.30;99.90;;;;;;5111506;28;20197;-83
2021/03/04 08:40:39;;;;;;;34.45;19.77;;;9.30;99.90;;;;;;5106888;28;20226;-83
2021/03/04 08:43:10;;;;;;;37.33;21.70;;;9.20;99.90;;;;;;5112183;28;20912;-83
2021/03/04 08:45:36;;;;;;;37.70;20.45;;;9.20;99.90;;;;;;5101101;28;20193;-80
2021/03/04 08:48:05;;;;;;;36.47;22.35;;;9.20;99.90;;;;;;5105516;27;20205;-85
2021/03/04 08:50:33;;;;;;;31.67;20.55;;;9.20;99.90;;;;;;5105531;28;20690;-85
2021/03/04 08:53:00;;;;;;;37.20;19.50;;;9.20;99.90;;;;;;5117081;27;20271;-85
2021/03/04 08:55:27;;;;;;;27.75;18.50;;;9.20;99.90;;;;;;5125293;27;20192;-82
2021/03/04 08:58:04;;;;;;;33.67;18.52;;;9.20;99.90;;;;;;5110969;27;20208;-81
2021/03/04 09:00:30;;;;;;;32.13;18.55;;;9.20;99.90;;;;;;5112931;27;20667;-87
2021/03/04 09:03:06;;;;;;;33.38;19.63;;;9.20;99.90;;;;;;5113470;28;20207;-84
2021/03/04 09:05:33;;;;;;;34.35;19.65;;;9.20;99.90;;;;;;5113123;28;20180;-81
2021/03/04 09:07:59;;;;;;;23.52;15.48;;;9.20;99.90;;;;;;5104804;28;20205;-84
2021/03/04 09:10:25;;;;;;;30.10;16.65;;;9.20;99.90;;;;;;5113493;27;20636;-83
2021/03/04 09:12:52;;;;;;;24.77;16.83;;;9.20;99.90;;;;;;5133652;27;20222;-80
2021/03/04 09:15:20;;;;;;;26.90;16.85;;;9.20;99.90;;;;;;5102948;27;20197;-88
2021/03/04 09:17:47;;;;;;;24.50;15.60;;;9.20;99.90;;;;;;5094580;28;20194;-79
2021/03/04 09:20:15;;;;;;;25.77;16.67;;;9.20;99.90;;;;;;5105439;28;20205;-85
2021/03/04 09:22:42;;;;;;;25.60;15.13;;;9.20;99.90;;;;;;5092718;28;20283;-82
2021/03/04 09:25:10;;;;;;;28.38;16.95;;;9.20;99.90;;;;;;5096661;28;20193;-81
2021/03/04 09:27:37;;;;;;;21.75;14.70;;;9.20;99.90;;;;;;5091684;28;20204;-81
2021/03/04 09:30:06;;;;;;;22.13;13.55;;;9.20;99.90;;;;;;5099039;28;20570;-82
2021/03/04 09:32:32;;;;;;;21.02;14.52;;;9.20;99.90;;;;;;5112620;28;20197;-83
2021/03/04 09:34:59;;;;;;;23.17;14.38;;;9.20;99.90;;;;;;5113176;28;20193;-83
2021/03/04 09:37:26;;;;;;;21.05;14.20;;;9.20;99.90;;;;;;5111054;28;20196;-82
2021/03/04 09:39:54;;;;;;;19.77;13.70;;;9.20;99.90;;;;;;5112510;28;20189;-82
2021/03/04 09:42:21;;;;;;;21.35;13.52;;;9.20;99.90;;;;;;5112108;28;20224;-82
2021/03/04 09:44:50;;;;;;;21.73;12.55;;;9.20;99.90;;;;;;5112396;28;20196;-82
2021/03/04 09:47:19;;;;;;;19.83;12.40;;;9.20;99.90;;;;;;5106730;28;20196;-82
2021/03/04 09:49:46;;;;;;;17.45;10.93;;;9.20;99.90;;;;;;5110132;28;20200;-82
2021/03/04 09:52:23;;;;;;;17.58;11.13;;;9.20;99.90;;;;;;5111538;28;20192;-82
2021/03/04 09:54:49;;;;;;;18.50;11.48;;;9.10;99.90;;;;;;5091860;28;20197;-82
2021/03/04 09:57:19;;;;;;;17.10;10.95;;;9.10;99.90;;;;;;5094049;28;20560;-81
2021/03/04 09:59:47;;;;;;;18.33;11.23;;;9.10;99.90;;;;;;5096763;28;20193;-82
2021/03/04 10:02:13;;;;;;;15.98;10.13;;;9.10;99.90;;;;;;5105842;28;20217;-81
2021/03/04 10:04:53;;;;;;;14.63;10.52;;;9.10;99.90;;;;;;5106687;28;20602;-81
2021/03/04 10:07:23;;;;;;;14.43;9.32;;;9.10;99.90;;;;;;5092077;28;20185;-81
2021/03/04 10:09:49;;;;;;;12.45;8.57;;;9.10;99.90;;;;;;5097168;28;20201;-82
2021/03/04 10:12:15;;;;;;;17.98;10.63;;;9.10;99.90;;;;;;5112227;28;20197;-81
2021/03/04 10:14:45;;;;;;;14.45;8.32;;;9.10;99.90;;;;;;5093708;28;20193;-81
2021/03/04 10:17:12;;;;;;;13.05;9.20;;;9.10;99.90;;;;;;5116189;28;20189;-84
2021/03/04 10:19:39;;;;;;;13.88;9.75;;;9.10;99.90;;;;;;5109854;28;20714;-84
2021/03/04 10:22:06;;;;;;;13.40;9.02;;;9.00;99.90;;;;;;5111878;28;20285;-84
2021/03/04 10:24:33;;;;;;;13.68;9.23;;;9.10;99.90;;;;;;5105848;28;20657;-84
2021/03/04 10:26:59;;;;;;;14.65;9.23;;;9.10;99.90;;;;;;5108075;28;20208;-84
2021/03/04 10:29:26;;;;;;;15.50;9.52;;;9.10;99.90;;;;;;5111672;28;20241;-84
2021/03/04 10:31:52;;;;;;;13.57;9.43;;;9.10;99.90;;;;;;5111731;28;20181;-84
2021/03/04 10:34:19;;;;;;;13.55;9.60;;;9.10;99.90;;;;;;5112084;28;20192;-84
2021/03/04 10:36:45;;;;;;;11.77;9.05;;;9.10;99.90;;;;;;5096186;28;20196;-84
2021/03/04 10:39:15;;;;;;;16.63;8.65;;;9.10;99.90;;;;;;5110472;28;20200;-84
2021/03/04 10:41:41;;;;;;;17.95;9.02;;;9.10;99.90;;;;;;5103417;28;20843;-82
2021/03/04 10:44:08;;;;;;;17.27;8.55;;;9.10;99.90;;;;;;5113445;28;20192;-81
2021/03/04 10:46:35;;;;;;;13.57;9.02;;;9.10;99.90;;;;;;5111798;28;20198;-78
2021/03/04 10:49:01;;;;;;;12.88;7.82;;;9.10;99.90;;;;;;5106861;28;20209;-76
2021/03/04 10:51:27;;;;;;;15.27;8.80;;;9.00;99.90;;;;;;5101887;28;20193;-77
2021/03/04 10:53:53;;;;;;;11.68;8.60;;;9.10;99.90;;;;;;5116218;28;20197;-83
2021/03/04 10:56:21;;;;;;;14.70;9.18;;;9.10;99.90;;;;;;5113660;28;20193;-82
2021/03/04 10:58:47;;;;;;;13.38;8.80;;;9.10;99.90;;;;;;5109636;28;20553;-82
2021/03/04 11:01:13;;;;;;;15.55;9.27;;;9.00;99.90;;;;;;5109549;28;20221;-79
2021/03/04 11:03:39;;;;;;;14.75;8.27;;;9.00;99.90;;;;;;5108106;28;20692;-82
2021/03/04 11:06:05;;;;;;;18.33;9.82;;;9.10;99.90;;;;;;5115047;28;20294;-84
2021/03/04 11:08:32;;;;;;;13.57;8.50;;;9.00;99.90;;;;;;5116928;27;20208;-83
2021/03/04 11:10:58;;;;;;;13.80;9.20;;;9.10;99.90;;;;;;5125462;27;20644;-85
2021/03/04 11:13:25;;;;;;;11.75;8.35;;;9.10;99.90;;;;;;5113327;27;20656;-84
2021/03/04 11:15:52;;;;;;;13.27;8.07;;;9.00;99.90;;;;;;5126999;27;20598;-83
2021/03/04 11:18:18;;;;;;;12.40;8.15;;;9.00;99.90;;;;;;5095652;27;20255;-85
2021/03/04 11:20:44;;;;;;;13.43;8.32;;;9.00;99.90;;;;;;5114877;27;20209;-80
2021/03/04 11:23:10;;;;;;;20.10;9.70;;;9.00;99.90;;;;;;5113607;28;20228;-82
2021/03/04 11:25:37;;;;;;;19.75;9.60;;;9.00;99.90;;;;;;5126042;27;20624;-80
2021/03/04 11:28:06;;;;;;;12.70;7.75;;;9.00;99.90;;;;;;5135362;27;20305;-82
2021/03/04 11:30:33;;;;;;;16.25;9.38;;;9.00;99.90;;;;;;5129439;27;20192;-79
2021/03/04 11:33:03;;;;;;;12.02;7.70;;;9.00;99.90;;;;;;5112497;27;20545;-82
2021/03/04 11:35:29;;;;;;;11.13;7.13;;;9.00;99.90;;;;;;5117542;27;20304;-82
2021/03/04 11:37:56;;;;;;;12.82;7.10;;;9.00;99.90;;;;;;5113182;27;20274;-80
2021/03/04 11:40:22;;;;;;;13.18;9.07;;;9.00;99.90;;;;;;5100938;28;20770;-83
2021/03/04 11:42:48;;;;;;;12.43;8.00;;;9.00;99.90;;;;;;5109159;27;20195;-84
2021/03/04 11:45:16;;;;;;;17.92;8.23;;;9.00;99.90;;;;;;5126405;27;20201;-88
2021/03/04 11:47:43;;;;;;;14.15;7.55;;;9.00;99.90;;;;;;5109754;27;20637;-85
2021/03/04 11:50:10;;;;;;;15.25;8.80;;;9.00;99.90;;;;;;5098263;28;20342;-85
2021/03/04 11:52:36;;;;;;;13.32;8.13;;;9.00;99.90;;;;;;5095243;28;20209;-86
2021/03/04 11:55:04;;;;;;;10.25;7.60;;;9.00;99.90;;;;;;5094621;28;20202;-84
2021/03/04 11:57:30;;;;;;;14.90;7.35;;;9.00;99.90;;;;;;5105509;28;20196;-83
2021/03/04 11:59:57;;;;;;;15.20;7.90;;;9.00;99.90;;;;;;5102447;28;20208;-80
2021/03/04 12:02:24;;;;;;;10.48;6.90;;;9.00;99.90;;;;;;5105563;28;20673;-83
2021/03/04 12:04:52;;;;;;;13.20;8.13;;;9.00;99.90;;;;;;5101920;28;20208;-85
2021/03/04 12:07:19;;;;;;;10.65;7.38;;;9.00;99.90;;;;;;5103537;28;20202;-84
2021/03/04 12:09:45;;;;;;;10.85;6.60;;;9.00;99.90;;;;;;5098401;28;20197;-82
2021/03/04 12:12:12;;;;;;;10.52;7.50;;;9.00;99.90;;;;;;5105619;28;20197;-83
2021/03/04 12:14:38;;;;;;;10.65;7.03;;;9.00;99.90;;;;;;5107398;28;20364;-81
2021/03/04 12:17:05;;;;;;;15.38;7.60;;;9.00;99.90;;;;;;5106086;28;20682;-83
2021/03/04 12:19:32;;;;;;;11.65;6.68;;;9.00;99.90;;;;;;5102834;28;20209;-82
2021/03/04 12:21:59;;;;;;;13.63;6.78;;;9.00;99.90;;;;;;5108427;28;20225;-83
2021/03/04 12:24:25;;;;;;;10.73;6.45;;;9.00;99.90;;;;;;5105507;28;20574;-82
2021/03/04 12:26:52;;;;;;;11.85;6.47;;;9.00;99.90;;;;;;5112117;27;20216;-82
2021/03/04 12:29:18;;;;;;;11.23;6.45;;;9.00;99.90;;;;;;5114224;27;20196;-81
2021/03/04 12:31:45;;;;;;;9.35;7.03;;;9.00;99.90;;;;;;5101324;28;20638;-82
2021/03/04 12:34:12;;;;;;;11.45;5.72;;;9.00;99.90;;;;;;5115009;27;20836;-80
2021/03/04 12:36:39;;;;;;;10.68;5.90;;;9.00;99.90;;;;;;5105868;27;20261;-83
2021/03/04 12:39:06;;;;;;;10.02;6.22;;;9.00;99.90;;;;;;5106727;27;20189;-84